createdAt,value
2023-01-26T00:00:31.798Z,2.94
2023-01-26T00:05:37.170Z,3.28
2023-01-26T00:10:40.199Z,3.06
2023-01-26T00:15:42.184Z,3.10
2023-01-26T00:20:43.897Z,3.16
2023-01-26T00:25:45.516Z,2.91
2023-01-26T00:30:47.219Z,2.97
2023-01-26T00:35:55.588Z,2.87
2023-01-26T00:40:57.266Z,2.89
2023-01-26T00:45:58.872Z,2.83
2023-01-26T00:51:00.461Z,2.85
2023-01-26T00:56:02.058Z,3.00
2023-01-26T01:01:03.771Z,2.87
2023-01-26T01:06:05.509Z,2.62
2023-01-26T01:11:09.193Z,2.49
2023-01-26T01:16:13.512Z,2.89
2023-01-26T01:21:16.816Z,2.94
2023-01-26T01:26:18.501Z,2.86
2023-01-26T01:31:20.288Z,2.93
2023-01-26T01:36:22.068Z,2.96
2023-01-26T01:41:26.234Z,2.88
2023-01-26T01:46:32.724Z,2.96
2023-01-26T01:51:42.143Z,2.91
2023-01-26T01:56:49.951Z,2.60
2023-01-26T02:01:52.401Z,2.77
2023-01-26T02:06:57.300Z,2.64
2023-01-26T02:12:21.472Z,2.76
2023-01-26T02:17:23.637Z,2.91
2023-01-26T02:22:45.892Z,2.98
2023-01-26T02:27:49.378Z,3.13
2023-01-26T02:32:50.968Z,2.89
2023-01-26T02:37:52.822Z,2.90
2023-01-26T02:42:55.149Z,2.62
2023-01-26T02:47:57.889Z,2.73
2023-01-26T02:53:01.397Z,2.71
2023-01-26T02:58:05.686Z,2.54
2023-01-26T03:03:14.997Z,2.71
2023-01-26T03:08:16.565Z,2.75
2023-01-26T03:13:18.606Z,2.65
2023-01-26T03:18:40.770Z,2.66
2023-01-26T03:24:01.186Z,2.77
2023-01-26T03:29:03.425Z,2.96
2023-01-26T03:34:05.170Z,2.56
2023-01-26T03:39:07.463Z,2.48
2023-01-26T03:44:27.871Z,2.53
2023-01-26T03:49:49.592Z,2.68
2023-01-26T03:55:09.906Z,2.64
2023-01-26T04:00:15.045Z,2.52
2023-01-26T04:05:37.518Z,2.68
2023-01-26T04:10:39.292Z,2.50
2023-01-26T04:15:59.770Z,2.58
2023-01-26T04:21:23.713Z,2.35
2023-01-26T04:26:34.639Z,2.49
2023-01-26T04:31:38.413Z,2.43
2023-01-26T04:36:40.703Z,2.40
2023-01-26T04:41:42.612Z,2.54
2023-01-26T04:46:48.785Z,2.43
2023-01-26T04:51:51.017Z,2.42
2023-01-26T04:56:52.719Z,2.27
2023-01-26T05:01:54.289Z,2.33
2023-01-26T05:06:56.202Z,2.35
2023-01-26T05:12:20.602Z,2.47
2023-01-26T05:17:48.258Z,2.47
2023-01-26T05:23:06.875Z,2.37
2023-01-26T05:28:27.273Z,2.51
2023-01-26T05:33:30.056Z,2.45
2023-01-26T05:38:32.417Z,2.45
2023-01-26T05:43:34.197Z,2.40
2023-01-26T05:48:54.045Z,2.64
2023-01-26T05:53:55.715Z,2.23
2023-01-26T05:58:57.375Z,2.54
2023-01-26T06:03:59.184Z,2.36
2023-01-26T06:09:05.366Z,2.46
2023-01-26T06:14:07.043Z,2.57
2023-01-26T06:19:10.189Z,2.61
2023-01-26T06:24:12.844Z,2.44
2023-01-26T06:29:15.658Z,2.40
2023-01-26T06:34:17.368Z,2.15
2023-01-26T06:39:19.065Z,2.41
2023-01-26T06:44:21.073Z,2.28
2023-01-26T06:49:22.729Z,2.31
2023-01-26T06:54:24.501Z,2.28
2023-01-26T06:59:36.864Z,2.05
2023-01-26T07:04:58.671Z,2.26
2023-01-26T07:10:00.257Z,2.22
2023-01-26T07:15:02.034Z,2.05
2023-01-26T07:20:03.899Z,2.19
2023-01-26T07:25:05.984Z,2.27
2023-01-26T07:30:09.080Z,2.23
2023-01-26T07:35:10.783Z,2.25
2023-01-26T07:40:13.028Z,2.25
2023-01-26T07:45:17.737Z,2.16
2023-01-26T07:50:21.476Z,2.21
2023-01-26T07:55:26.047Z,2.11
2023-01-26T08:00:27.622Z,2.26
2023-01-26T08:05:29.468Z,2.34
2023-01-26T08:10:31.657Z,2.44
2023-01-26T08:15:33.253Z,2.46
2023-01-26T08:20:34.828Z,2.69
2023-01-26T08:25:36.372Z,2.26
2023-01-26T08:30:38.182Z,2.27
2023-01-26T08:35:39.891Z,2.44
2023-01-26T08:40:41.614Z,2.50
2023-01-26T08:45:43.201Z,2.40
2023-01-26T08:50:45.319Z,2.63
2023-01-26T08:55:46.932Z,2.25
2023-01-26T09:00:49.051Z,2.62
2023-01-26T09:05:50.710Z,2.20
2023-01-26T09:10:52.267Z,2.07
2023-01-26T09:15:53.991Z,2.13
2023-01-26T09:20:56.053Z,2.35
2023-01-26T09:25:57.611Z,2.30
2023-01-26T09:31:07.166Z,2.24
2023-01-26T09:36:10.749Z,2.25
2023-01-26T09:41:34.096Z,2.27
2023-01-26T09:46:54.492Z,2.17
2023-01-26T09:52:04.902Z,2.18
2023-01-26T09:57:15.341Z,2.26
2023-01-26T10:02:41.590Z,2.16
2023-01-26T10:07:45.339Z,2.20
2023-01-26T10:12:47.907Z,2.24
2023-01-26T10:17:50.626Z,2.33
2023-01-26T10:22:55.185Z,2.32
2023-01-26T10:27:56.817Z,2.34
2023-01-26T10:32:58.551Z,2.45
2023-01-26T10:38:00.181Z,2.58
2023-01-26T10:43:01.761Z,2.65
2023-01-26T10:48:16.783Z,2.68
2023-01-26T10:53:29.935Z,2.75
2023-01-26T10:58:50.295Z,2.57
2023-01-26T11:04:05.208Z,2.62
2023-01-26T11:09:27.076Z,2.43
2023-01-26T11:14:30.388Z,2.19
2023-01-26T11:19:50.328Z,2.41
2023-01-26T11:25:00.182Z,2.47
2023-01-26T11:30:33.335Z,2.53
2023-01-26T11:36:04.003Z,2.37
2023-01-26T11:41:19.077Z,2.42
2023-01-26T11:46:29.679Z,2.37
2023-01-26T11:52:03.557Z,2.48
2023-01-26T11:57:41.973Z,2.70
2023-01-26T12:02:51.732Z,2.56
2023-01-26T12:08:01.128Z,2.59
2023-01-26T12:13:31.988Z,2.35
2023-01-26T12:18:53.051Z,2.72
2023-01-26T12:24:03.079Z,2.62
2023-01-26T12:29:20.869Z,2.76
2023-01-26T12:34:28.946Z,2.81
2023-01-26T12:39:45.488Z,2.94
2023-01-26T12:44:52.744Z,2.90
2023-01-26T12:50:16.627Z,2.83
2023-01-26T12:55:20.199Z,2.92
2023-01-26T13:00:30.455Z,2.79
2023-01-26T13:05:36.079Z,2.83
2023-01-26T13:10:46.462Z,2.66
2023-01-26T13:15:48.126Z,2.73
2023-01-26T13:20:50.373Z,2.85
2023-01-26T13:26:15.016Z,2.63
2023-01-26T13:31:32.899Z,2.80
2023-01-26T13:36:36.875Z,2.91
2023-01-26T13:41:47.555Z,2.92
2023-01-26T13:46:54.165Z,2.98
2023-01-26T13:51:55.733Z,2.77
2023-01-26T13:57:07.492Z,2.45
2023-01-26T14:02:22.707Z,2.70
2023-01-26T14:07:38.345Z,2.68
2023-01-26T14:12:47.295Z,2.67
2023-01-26T14:17:51.685Z,2.87
2023-01-26T14:23:19.669Z,2.78
2023-01-26T14:28:22.538Z,2.76
2023-01-26T14:33:24.651Z,2.70
2023-01-26T14:38:28.821Z,2.63
2023-01-26T14:43:30.392Z,2.52
2023-01-26T14:48:37.928Z,2.58
2023-01-26T14:53:39.513Z,2.39
2023-01-26T14:58:41.451Z,2.19
2023-01-26T15:03:43.023Z,2.22
2023-01-26T15:08:55.386Z,2.45
2023-01-26T15:13:57.056Z,2.17
2023-01-26T15:19:09.245Z,1.98
2023-01-26T15:24:13.985Z,1.98
2023-01-26T15:29:32.594Z,2.30
2023-01-26T15:34:38.823Z,2.30
2023-01-26T15:39:40.364Z,2.09
2023-01-26T15:44:42.411Z,1.73
2023-01-26T15:49:44.094Z,2.04
2023-01-26T15:54:45.676Z,1.82
2023-01-26T15:59:47.349Z,1.57
2023-01-26T16:04:48.995Z,1.73
2023-01-26T16:09:51.843Z,1.82
2023-01-26T16:14:53.399Z,1.55
2023-01-26T16:19:55.063Z,1.53
2023-01-26T16:24:56.632Z,1.77
2023-01-26T16:29:58.301Z,2.09
2023-01-26T16:35:00.032Z,1.89
2023-01-26T16:40:01.625Z,1.73
2023-01-26T16:45:03.497Z,1.91
2023-01-26T16:50:05.333Z,1.92
2023-01-26T16:55:12.636Z,1.66
2023-01-26T17:00:16.661Z,2.03
2023-01-26T17:05:21.056Z,1.58
2023-01-26T17:10:24.065Z,1.32
2023-01-26T17:15:25.724Z,1.72
2023-01-26T17:20:27.333Z,2.02
2023-01-26T17:25:28.896Z,1.90
2023-01-26T17:30:30.552Z,1.96
2023-01-26T17:35:32.295Z,1.53
2023-01-26T17:40:35.210Z,1.76
2023-01-26T17:45:36.837Z,1.68
2023-01-26T17:50:38.433Z,1.95
2023-01-26T17:55:40.000Z,1.81
2023-01-26T18:00:42.098Z,1.66
2023-01-26T18:05:51.785Z,1.47
2023-01-26T18:11:04.118Z,1.86
2023-01-26T18:16:07.033Z,1.76
2023-01-26T18:21:11.713Z,1.95
2023-01-26T18:26:14.062Z,1.93
2023-01-26T18:31:19.101Z,1.60
2023-01-26T18:36:21.236Z,2.01
2023-01-26T18:41:23.842Z,2.12
2023-01-26T18:46:27.150Z,1.38
2023-01-26T18:51:30.755Z,1.28
2023-01-26T18:56:32.504Z,1.51
2023-01-26T19:01:34.367Z,1.58
2023-01-26T19:06:36.322Z,1.53
2023-01-26T19:11:38.942Z,1.43
2023-01-26T19:16:42.228Z,1.76
2023-01-26T19:21:43.857Z,1.76
2023-01-26T19:26:45.455Z,1.75
2023-01-26T19:31:47.121Z,1.82
2023-01-26T19:36:48.918Z,1.81
2023-01-26T19:41:50.699Z,1.85
2023-01-26T19:46:53.545Z,1.90
2023-01-26T19:51:55.492Z,1.70
2023-01-26T19:56:57.182Z,1.69
2023-01-26T20:01:58.862Z,1.19
2023-01-26T20:07:02.085Z,1.68
2023-01-26T20:12:06.099Z,1.71
2023-01-26T20:17:07.927Z,1.64
2023-01-26T20:22:09.561Z,1.62
2023-01-26T20:27:11.150Z,1.65
2023-01-26T20:32:13.794Z,1.72
2023-01-26T20:37:15.548Z,1.63
2023-01-26T20:42:18.818Z,1.76
2023-01-26T20:47:22.433Z,1.72
2023-01-26T20:52:25.014Z,1.80
2023-01-26T20:57:26.669Z,1.89
2023-01-26T21:02:28.425Z,1.54
2023-01-26T21:07:30.053Z,1.56
2023-01-26T21:12:33.969Z,1.71
2023-01-26T21:17:35.537Z,1.26
2023-01-26T21:22:37.218Z,1.70
2023-01-26T21:27:38.930Z,1.51
2023-01-26T21:32:40.499Z,1.81
2023-01-26T21:37:42.126Z,1.63
2023-01-26T21:42:43.675Z,1.75
2023-01-26T21:48:05.246Z,1.45
2023-01-26T21:53:06.826Z,1.62
2023-01-26T21:58:27.352Z,1.61
2023-01-26T22:03:33.123Z,1.67
2023-01-26T22:08:35.465Z,1.70
2023-01-26T22:13:38.039Z,1.76
2023-01-26T22:18:40.449Z,1.28
2023-01-26T22:23:42.387Z,1.26
2023-01-26T22:28:49.988Z,1.54
2023-01-26T22:33:53.049Z,1.51
2023-01-26T22:38:54.745Z,1.50
2023-01-26T22:43:58.065Z,1.78
2023-01-26T22:48:59.970Z,1.55
2023-01-26T22:54:01.635Z,1.52
2023-01-26T22:59:03.305Z,1.52
2023-01-26T23:04:04.966Z,1.39
2023-01-26T23:09:06.581Z,1.11
2023-01-26T23:14:08.301Z,1.52
2023-01-26T23:19:09.936Z,1.41
2023-01-26T23:24:11.593Z,1.34
2023-01-26T23:29:13.249Z,1.10
2023-01-26T23:34:14.860Z,1.23
2023-01-26T23:39:16.480Z,0.93
2023-01-26T23:44:18.061Z,1.18
2023-01-26T23:49:19.640Z,1.19
2023-01-26T23:54:21.249Z,1.17
2023-01-26T23:59:23.020Z,1.06
